createdAt,value
2018-03-19T00:00:10.032Z,62.30
2018-03-19T00:02:37.571Z,61.83
2018-03-19T00:05:05.068Z,61.26
2018-03-19T00:07:32.578Z,61.46
2018-03-19T00:10:00.052Z,61.45
2018-03-19T00:12:27.643Z,62.41
2018-03-19T00:14:55.132Z,62.54
2018-03-19T00:17:22.621Z,62.51
2018-03-19T00:19:50.123Z,62.29
2018-03-19T00:22:18.763Z,62.09
2018-03-19T00:24:47.713Z,62.47
2018-03-19T00:27:16.555Z,62.59
2018-03-19T00:29:44.020Z,61.66
2018-03-19T00:32:11.591Z,61.78
2018-03-19T00:34:39.082Z,61.33
2018-03-19T00:37:06.722Z,61.71
2018-03-19T00:39:34.630Z,62.21
2018-03-19T00:42:02.133Z,61.72
2018-03-19T00:44:29.979Z,61.92
2018-03-19T00:46:57.687Z,61.74
2018-03-19T01:02:23.908Z,62.35
2018-03-19T01:04:51.446Z,62.08
2018-03-19T01:07:18.932Z,62.12
2018-03-19T01:09:46.416Z,62.27
2018-03-19T01:12:14.927Z,62.03
2018-03-19T01:14:42.398Z,62.13
2018-03-19T01:17:10.808Z,62.54
2018-03-19T01:19:38.548Z,62.17
2018-03-19T01:22:06.044Z,62.64
2018-03-19T01:24:33.520Z,62.23
2018-03-19T01:27:01.088Z,62.25
2018-03-19T01:29:28.596Z,61.67
2018-03-19T01:31:56.115Z,62.34
2018-03-19T01:34:23.604Z,62.07
2018-03-19T01:36:51.125Z,61.92
2018-03-19T01:39:18.667Z,62.15
2018-03-19T01:41:46.245Z,62.43
2018-03-19T01:44:13.784Z,62.34
2018-03-19T01:46:41.314Z,62.85
2018-03-19T01:49:08.800Z,62.16
2018-03-19T01:51:37.368Z,62.32
2018-03-19T01:54:04.879Z,62.53
2018-03-19T01:56:32.539Z,62.79
2018-03-19T01:59:00.012Z,62.79
2018-03-19T02:01:27.524Z,62.48
2018-03-19T02:03:55.099Z,62.92
2018-03-19T02:06:22.674Z,63.27
2018-03-19T02:08:50.490Z,62.95
2018-03-19T02:11:18.017Z,63.04
2018-03-19T02:13:45.496Z,62.41
2018-03-19T02:16:13.088Z,63.10
2018-03-19T02:18:40.627Z,63.07
2018-03-19T02:21:08.811Z,63.23
2018-03-19T02:23:36.331Z,63.31
2018-03-19T02:26:03.916Z,63.00
2018-03-19T02:28:31.485Z,63.67
2018-03-19T02:30:58.982Z,64.22
2018-03-19T02:33:26.479Z,63.27
2018-03-19T02:35:54.032Z,63.58
2018-03-19T02:38:21.549Z,63.88
2018-03-19T02:40:49.029Z,63.38
2018-03-19T02:43:16.533Z,63.76
2018-03-19T02:45:44.061Z,63.90
2018-03-19T02:48:11.548Z,64.43
2018-03-19T02:50:39.055Z,64.30
2018-03-19T02:53:06.616Z,64.62
2018-03-19T02:55:34.108Z,64.50
2018-03-19T02:58:01.607Z,64.66
2018-03-19T03:00:29.921Z,64.45
2018-03-19T03:02:57.392Z,64.98
2018-03-19T03:05:24.888Z,64.89
2018-03-19T03:07:52.427Z,64.95
2018-03-19T03:10:19.968Z,65.24
2018-03-19T03:12:47.474Z,65.04
2018-03-19T03:15:15.133Z,65.14
2018-03-19T03:17:42.690Z,64.98
2018-03-19T03:20:10.186Z,64.99
2018-03-19T03:22:37.670Z,65.05
2018-03-19T03:25:05.196Z,65.05
2018-03-19T03:27:32.667Z,64.98
2018-03-19T03:30:00.169Z,65.48
2018-03-19T03:32:28.418Z,65.43
2018-03-19T03:34:55.892Z,64.99
2018-03-19T03:37:23.420Z,65.22
2018-03-19T03:39:50.887Z,65.39
2018-03-19T03:42:18.356Z,65.44
2018-03-19T03:44:45.825Z,65.53
2018-03-19T03:47:13.320Z,65.50
2018-03-19T03:49:40.810Z,65.51
2018-03-19T03:52:08.323Z,65.90
2018-03-19T03:54:35.804Z,65.51
2018-03-19T03:57:03.294Z,65.76
2018-03-19T03:59:30.821Z,65.86
2018-03-19T04:01:58.331Z,65.51
2018-03-19T04:04:25.810Z,65.02
2018-03-19T04:06:53.302Z,64.92
2018-03-19T04:09:21.160Z,65.37
2018-03-19T04:11:48.646Z,65.84
2018-03-19T04:14:16.409Z,66.47
2018-03-19T04:16:43.897Z,66.41
2018-03-19T04:19:11.386Z,66.34
2018-03-19T04:21:38.868Z,65.40
2018-03-19T04:24:06.349Z,65.81
2018-03-19T04:26:33.933Z,66.39
2018-03-19T04:29:03.455Z,66.38
2018-03-19T04:31:30.932Z,66.72
2018-03-19T04:33:58.644Z,66.05
2018-03-19T04:36:26.180Z,66.22
2018-03-19T04:38:53.662Z,66.51
2018-03-19T04:41:21.155Z,66.84
2018-03-19T04:43:48.712Z,66.42
2018-03-19T04:46:16.246Z,67.13
2018-03-19T04:48:43.985Z,66.68
2018-03-19T04:51:11.460Z,66.68
2018-03-19T04:53:38.940Z,66.77
2018-03-19T04:56:06.419Z,67.00
2018-03-19T04:58:34.252Z,66.85
2018-03-19T05:01:01.757Z,67.20
2018-03-19T05:03:29.290Z,67.25
2018-03-19T05:05:57.827Z,66.95
2018-03-19T05:08:25.309Z,66.72
2018-03-19T05:10:54.443Z,66.98
2018-03-19T05:13:27.200Z,67.47
2018-03-19T05:15:55.960Z,67.54
2018-03-19T05:18:24.967Z,66.70
2018-03-19T05:20:53.278Z,66.61
2018-03-19T05:23:20.846Z,66.64
2018-03-19T05:25:48.331Z,66.70
2018-03-19T05:28:15.943Z,67.14
2018-03-19T05:30:43.838Z,67.17
2018-03-19T05:33:11.543Z,66.69
2018-03-19T05:35:39.667Z,66.54
2018-03-19T05:38:07.177Z,66.77
2018-03-19T05:40:34.805Z,67.37
2018-03-19T05:43:02.319Z,67.11
2018-03-19T05:45:29.808Z,65.45
2018-03-19T05:47:57.295Z,63.61
2018-03-19T05:50:24.782Z,64.05
2018-03-19T05:52:52.261Z,64.56
2018-03-19T05:55:19.744Z,64.44
2018-03-19T05:57:47.236Z,64.82
2018-03-19T06:00:14.736Z,65.05
2018-03-19T06:02:42.224Z,64.67
2018-03-19T06:05:09.711Z,64.78
2018-03-19T06:07:37.204Z,64.38
2018-03-19T06:10:04.709Z,64.97
2018-03-19T06:12:32.191Z,64.55
2018-03-19T06:14:59.672Z,65.00
2018-03-19T06:17:27.165Z,65.12
2018-03-19T06:19:54.663Z,64.33
2018-03-19T06:22:22.196Z,63.87
2018-03-19T06:24:49.702Z,64.01
2018-03-19T06:27:17.242Z,63.82
2018-03-19T06:29:44.738Z,64.16
2018-03-19T06:32:13.650Z,63.82
2018-03-19T06:34:41.184Z,64.69
2018-03-19T06:37:08.715Z,63.52
2018-03-19T06:39:36.198Z,63.43
2018-03-19T06:42:03.692Z,63.26
2018-03-19T06:44:31.263Z,63.82
2018-03-19T06:46:58.769Z,63.00
2018-03-19T06:49:26.255Z,63.11
2018-03-19T06:51:53.766Z,63.21
2018-03-19T06:54:21.253Z,63.37
2018-03-19T06:56:48.819Z,62.45
2018-03-19T06:59:16.328Z,62.65
2018-03-19T07:01:43.812Z,62.35
2018-03-19T07:04:11.380Z,62.83
2018-03-19T07:06:38.881Z,62.54
2018-03-19T07:09:06.377Z,62.04
2018-03-19T07:11:34.872Z,62.00
2018-03-19T07:14:02.326Z,62.00
2018-03-19T07:16:29.807Z,61.99
2018-03-19T07:18:57.330Z,61.47
2018-03-19T07:21:24.834Z,61.12
2018-03-19T07:23:52.394Z,61.08
2018-03-19T07:26:19.876Z,60.13
2018-03-19T07:28:47.430Z,59.76
2018-03-19T07:31:14.918Z,59.04
2018-03-19T07:33:42.523Z,59.81
2018-03-19T07:36:10.082Z,60.05
2018-03-19T07:38:37.691Z,59.35
2018-03-19T07:41:05.180Z,59.82
2018-03-19T07:43:32.666Z,60.50
2018-03-19T07:46:00.200Z,59.70
2018-03-19T07:48:27.966Z,60.05
2018-03-19T07:50:55.460Z,59.27
2018-03-19T07:53:22.937Z,59.00
2018-03-19T07:55:50.477Z,59.13
2018-03-19T07:58:18.603Z,59.61
2018-03-19T08:00:46.227Z,59.60
2018-03-19T08:03:13.694Z,59.42
2018-03-19T08:05:41.156Z,59.41
2018-03-19T08:08:08.617Z,59.12
2018-03-19T08:10:36.292Z,59.12
2018-03-19T08:13:03.768Z,58.96
2018-03-19T08:15:31.237Z,58.74
2018-03-19T08:17:58.716Z,58.03
2018-03-19T08:20:26.181Z,57.89
2018-03-19T08:22:53.687Z,57.93
2018-03-19T08:25:21.147Z,57.99
2018-03-19T08:27:48.644Z,57.62
2018-03-19T08:30:16.131Z,57.43
2018-03-19T08:32:43.627Z,57.94
2018-03-19T08:35:11.085Z,57.16
2018-03-19T08:37:38.663Z,56.77
2018-03-19T08:40:06.126Z,55.25
2018-03-19T08:42:33.604Z,55.90
2018-03-19T08:45:01.060Z,55.87
2018-03-19T08:47:28.545Z,55.54
2018-03-19T08:49:56.032Z,55.92
2018-03-19T08:52:23.491Z,55.63
2018-03-19T08:54:50.974Z,55.01
2018-03-19T08:57:18.475Z,55.26
2018-03-19T08:59:46.035Z,55.75
2018-03-19T09:02:13.577Z,56.57
2018-03-19T09:04:41.035Z,56.27
2018-03-19T09:07:08.581Z,57.05
2018-03-19T09:09:36.794Z,56.21
2018-03-19T09:12:04.337Z,55.74
2018-03-19T09:14:31.991Z,54.42
2018-03-19T09:16:59.491Z,54.60
2018-03-19T09:19:26.967Z,54.30
2018-03-19T09:21:54.464Z,53.44
2018-03-19T09:24:21.947Z,52.45
2018-03-19T09:26:49.448Z,53.37
2018-03-19T09:29:16.929Z,53.27
2018-03-19T09:31:45.755Z,53.33
2018-03-19T09:34:13.421Z,53.86
2018-03-19T09:36:40.919Z,53.79
2018-03-19T09:39:08.374Z,53.24
2018-03-19T09:41:35.866Z,52.26
2018-03-19T09:44:03.351Z,52.73
2018-03-19T09:46:31.707Z,52.86
2018-03-19T09:48:59.178Z,53.02
2018-03-19T09:51:26.671Z,53.13
2018-03-19T09:53:54.136Z,52.65
2018-03-19T09:56:21.653Z,53.48
2018-03-19T09:58:49.147Z,52.29
2018-03-19T10:01:16.674Z,50.91
2018-03-19T10:03:44.164Z,49.99
2018-03-19T10:06:11.650Z,50.17
2018-03-19T10:08:39.120Z,49.99
2018-03-19T10:11:06.604Z,50.57
2018-03-19T10:13:34.113Z,50.87
2018-03-19T10:16:01.583Z,51.50
2018-03-19T10:18:29.773Z,51.89
2018-03-19T10:20:57.269Z,51.55
2018-03-19T10:23:24.766Z,51.99
2018-03-19T10:25:52.307Z,50.72
2018-03-19T10:28:19.776Z,51.36
2018-03-19T10:30:47.251Z,51.00
2018-03-19T10:33:14.884Z,50.77
2018-03-19T10:35:42.405Z,50.50
2018-03-19T10:38:09.866Z,49.99
2018-03-19T10:40:37.354Z,50.52
2018-03-19T10:43:04.894Z,51.37
2018-03-19T10:45:32.453Z,50.36
2018-03-19T10:47:59.949Z,50.33
2018-03-19T10:52:59.207Z,51.65
2018-03-19T10:58:02.063Z,50.66
2018-03-19T11:00:29.527Z,49.77
2018-03-19T11:03:02.419Z,50.12
2018-03-19T11:05:30.819Z,50.59
2018-03-19T11:08:03.843Z,50.91
2018-03-19T11:10:32.718Z,51.75
2018-03-19T11:13:00.179Z,51.84
2018-03-19T11:15:27.688Z,50.97
2018-03-19T11:17:55.159Z,51.09
2018-03-19T11:20:22.635Z,50.58
2018-03-19T11:22:50.133Z,51.04
2018-03-19T11:25:17.629Z,51.70
2018-03-19T11:27:45.098Z,51.88
2018-03-19T11:30:12.655Z,51.39
2018-03-19T11:32:40.143Z,51.76
2018-03-19T11:35:07.660Z,51.95
2018-03-19T11:37:35.220Z,52.29
2018-03-19T11:40:02.770Z,52.14
2018-03-19T11:42:30.240Z,51.47
2018-03-19T11:44:57.741Z,50.88
2018-03-19T11:47:25.234Z,51.78
2018-03-19T11:49:52.758Z,51.86
2018-03-19T11:52:20.238Z,51.30
2018-03-19T11:54:47.972Z,51.70
2018-03-19T11:57:15.482Z,50.82
2018-03-19T11:59:43.008Z,49.70
2018-03-19T12:02:10.513Z,50.00
2018-03-19T12:04:37.983Z,49.81
2018-03-19T12:07:05.483Z,49.65
2018-03-19T12:09:32.979Z,49.06
2018-03-19T12:12:00.434Z,49.90
2018-03-19T12:14:27.980Z,50.15
2018-03-19T12:16:55.448Z,51.25
2018-03-19T12:19:22.942Z,51.05
2018-03-19T12:21:50.503Z,51.15
2018-03-19T12:24:17.980Z,52.38
2018-03-19T12:26:45.462Z,52.23
2018-03-19T12:29:13.029Z,52.57
2018-03-19T12:31:40.844Z,51.94
2018-03-19T12:34:08.319Z,53.02
2018-03-19T12:36:35.827Z,52.47
2018-03-19T12:39:03.343Z,52.62
2018-03-19T12:41:30.833Z,52.72
2018-03-19T12:43:58.301Z,53.27
2018-03-19T12:46:25.765Z,54.05
2018-03-19T12:48:53.239Z,53.91
2018-03-19T12:51:20.728Z,54.38
2018-03-19T12:53:48.196Z,53.80
2018-03-19T12:56:15.832Z,54.64
2018-03-19T12:58:43.330Z,54.28
2018-03-19T13:01:10.787Z,54.06
2018-03-19T13:03:38.284Z,54.49
2018-03-19T13:06:05.812Z,54.76
2018-03-19T13:08:33.412Z,54.82
2018-03-19T13:11:00.897Z,54.21
2018-03-19T13:13:28.411Z,54.53
2018-03-19T13:15:55.874Z,54.55
2018-03-19T13:18:24.728Z,54.55
2018-03-19T13:20:52.218Z,54.70
2018-03-19T13:23:22.381Z,54.68
2018-03-19T13:25:50.436Z,54.87
2018-03-19T13:28:19.674Z,55.48
2018-03-19T13:30:47.260Z,55.25
2018-03-19T13:33:14.878Z,55.69
2018-03-19T13:35:42.365Z,55.35
2018-03-19T13:38:09.842Z,55.77
2018-03-19T13:40:37.339Z,56.08
2018-03-19T13:43:05.696Z,55.28
2018-03-19T13:45:34.250Z,55.21
2018-03-19T13:48:02.676Z,55.67
2018-03-19T13:50:30.149Z,55.20
2018-03-19T13:52:57.626Z,55.22
2018-03-19T13:55:25.151Z,54.92
2018-03-19T13:57:52.616Z,55.55
2018-03-19T14:00:20.120Z,55.86
2018-03-19T14:02:48.300Z,56.19
2018-03-19T14:05:15.762Z,55.58
2018-03-19T14:07:43.231Z,55.02
2018-03-19T14:10:10.722Z,55.56
2018-03-19T14:12:38.210Z,56.43
2018-03-19T14:15:05.699Z,57.17
2018-03-19T14:17:33.159Z,56.85
2018-03-19T14:20:00.645Z,56.75
2018-03-19T14:22:28.140Z,56.56
2018-03-19T14:24:55.574Z,56.85
2018-03-19T14:27:23.066Z,57.64
2018-03-19T14:29:50.569Z,57.49
2018-03-19T14:32:18.105Z,57.24
2018-03-19T14:34:45.595Z,56.76
2018-03-19T14:37:13.051Z,57.03
2018-03-19T14:39:41.221Z,56.49
2018-03-19T14:42:08.722Z,56.31
2018-03-19T14:44:36.189Z,56.16
2018-03-19T14:47:03.651Z,56.38
2018-03-19T14:49:31.128Z,56.20
2018-03-19T14:51:58.609Z,56.41
2018-03-19T14:54:26.299Z,56.46
2018-03-19T14:56:53.814Z,56.92
2018-03-19T14:59:21.280Z,57.27
2018-03-19T15:01:48.740Z,57.05
2018-03-19T15:04:16.900Z,57.23
2018-03-19T15:06:44.379Z,57.27
2018-03-19T15:09:11.868Z,56.67
2018-03-19T15:11:39.337Z,56.99
2018-03-19T15:14:06.807Z,56.95
2018-03-19T15:16:35.092Z,56.95
2018-03-19T15:19:02.617Z,56.63
2018-03-19T15:21:30.079Z,57.08
2018-03-19T15:23:57.616Z,56.86
2018-03-19T15:26:25.092Z,57.31
2018-03-19T15:28:52.555Z,57.89
2018-03-19T15:31:20.080Z,57.83
2018-03-19T15:33:47.560Z,57.63
2018-03-19T15:36:15.063Z,57.49
2018-03-19T15:38:42.511Z,57.61
2018-03-19T15:41:10.004Z,57.55
2018-03-19T15:43:37.485Z,57.78
2018-03-19T15:46:05.014Z,57.83
2018-03-19T15:48:32.478Z,57.97
2018-03-19T15:50:59.944Z,57.98
2018-03-19T15:53:27.441Z,58.08
2018-03-19T15:55:54.951Z,58.60
2018-03-19T15:58:22.500Z,58.93
2018-03-19T16:00:50.188Z,59.54
2018-03-19T16:03:17.711Z,60.63
2018-03-19T16:05:45.222Z,60.71
2018-03-19T16:08:12.679Z,61.64
2018-03-19T16:10:40.168Z,62.15
2018-03-19T16:13:07.654Z,62.38
2018-03-19T16:15:35.124Z,62.69
2018-03-19T16:18:02.613Z,62.65
2018-03-19T16:20:31.075Z,62.62
2018-03-19T16:22:58.552Z,62.96
2018-03-19T16:25:26.044Z,63.20
2018-03-19T16:27:53.506Z,62.76
2018-03-19T16:30:20.994Z,63.09
2018-03-19T16:32:48.509Z,62.46
2018-03-19T16:35:15.983Z,63.13
2018-03-19T16:37:43.452Z,63.71
2018-03-19T16:40:10.948Z,64.47
2018-03-19T16:42:38.418Z,64.26
2018-03-19T16:45:05.889Z,64.20
2018-03-19T16:47:33.372Z,65.00
2018-03-19T16:50:00.837Z,65.80
2018-03-19T16:52:28.324Z,66.00
2018-03-19T16:54:55.816Z,66.47
2018-03-19T16:57:23.318Z,66.56
2018-03-19T16:59:50.803Z,67.37
2018-03-19T17:02:18.315Z,66.46
2018-03-19T17:04:45.802Z,66.81
2018-03-19T17:07:13.334Z,67.14
2018-03-19T17:09:40.775Z,68.21
2018-03-19T17:12:08.580Z,68.34
2018-03-19T17:14:38.420Z,67.48
2018-03-19T17:17:06.257Z,68.05
2018-03-19T17:19:33.746Z,67.15
2018-03-19T17:22:01.484Z,65.54
2018-03-19T17:24:29.786Z,67.17
2018-03-19T17:26:57.383Z,66.93
2018-03-19T17:29:24.899Z,67.17
2018-03-19T17:31:52.400Z,68.04
2018-03-19T17:34:19.892Z,67.78
2018-03-19T17:36:51.052Z,68.66
2018-03-19T17:39:19.327Z,68.31
2018-03-19T17:41:48.222Z,68.69
2018-03-19T17:44:16.856Z,68.40
2018-03-19T17:46:44.316Z,67.79
2018-03-19T17:49:11.904Z,68.28
2018-03-19T17:51:39.447Z,67.38
2018-03-19T17:54:06.998Z,67.32
2018-03-19T17:56:35.333Z,66.33
2018-03-19T17:59:02.825Z,66.10
2018-03-19T18:01:30.303Z,65.69
2018-03-19T18:03:57.794Z,66.01
2018-03-19T18:06:26.906Z,66.40
2018-03-19T18:08:54.595Z,66.15
2018-03-19T18:11:23.658Z,66.37
2018-03-19T18:13:51.256Z,66.55
2018-03-19T18:16:18.757Z,65.65
2018-03-19T18:18:46.934Z,66.29
2018-03-19T18:21:14.677Z,66.06
2018-03-19T18:23:42.776Z,66.28
2018-03-19T18:26:10.237Z,66.30
2018-03-19T18:28:37.729Z,66.44
2018-03-19T18:31:05.258Z,67.16
2018-03-19T18:33:33.261Z,67.24
2018-03-19T18:36:00.731Z,67.39
2018-03-19T18:38:28.247Z,67.40
2018-03-19T18:40:56.126Z,68.41
2018-03-19T18:43:23.634Z,69.76
2018-03-19T18:45:51.200Z,70.20
2018-03-19T18:48:18.735Z,70.20
2018-03-19T18:50:46.428Z,70.72
2018-03-19T18:53:13.982Z,70.94
2018-03-19T18:55:41.580Z,71.47
2018-03-19T18:58:09.566Z,70.52
2018-03-19T19:00:37.059Z,70.82
2018-03-19T19:03:04.616Z,71.47
2018-03-19T19:05:32.079Z,72.10
2018-03-19T19:07:59.643Z,71.12
2018-03-19T19:10:27.146Z,70.96
2018-03-19T19:12:55.190Z,71.12
2018-03-19T19:15:22.687Z,70.77
2018-03-19T19:17:50.158Z,71.07
2018-03-19T19:20:18.240Z,71.51
2018-03-19T19:22:45.758Z,71.03
2018-03-19T19:25:13.347Z,71.45
2018-03-19T19:27:40.863Z,72.12
2018-03-19T19:30:08.386Z,71.36
2018-03-19T19:32:37.156Z,71.79
2018-03-19T19:35:05.312Z,71.25
2018-03-19T19:37:32.844Z,71.42
2018-03-19T19:40:00.437Z,71.68
2018-03-19T19:42:28.077Z,72.05
2018-03-19T19:44:55.632Z,71.88
2018-03-19T19:47:23.112Z,71.96
2018-03-19T19:49:50.598Z,71.94
2018-03-19T19:52:18.106Z,71.65
2018-03-19T19:54:45.595Z,72.55
2018-03-19T19:57:13.143Z,71.81
2018-03-19T19:59:40.638Z,71.04
2018-03-19T20:02:08.147Z,72.24
2018-03-19T20:04:35.771Z,72.97
2018-03-19T20:07:03.295Z,72.53
2018-03-19T20:09:30.782Z,72.80
2018-03-19T20:11:58.313Z,73.59
2018-03-19T20:14:25.831Z,74.33
2018-03-19T20:16:53.334Z,74.40
2018-03-19T20:19:20.858Z,75.11
2018-03-19T20:21:48.381Z,75.05
2018-03-19T20:24:16.116Z,75.10
2018-03-19T20:26:43.611Z,75.25
2018-03-19T20:29:11.159Z,75.43
2018-03-19T20:31:38.650Z,75.76
2018-03-19T20:34:06.131Z,76.22
2018-03-19T20:36:33.626Z,76.41
2018-03-19T20:39:01.152Z,76.55
2018-03-19T20:41:28.660Z,76.62
2018-03-19T20:43:56.150Z,76.66
2018-03-19T20:46:23.657Z,77.21
2018-03-19T20:48:51.222Z,77.51
2018-03-19T20:51:18.802Z,78.11
2018-03-19T20:53:46.285Z,77.72
2018-03-19T20:56:13.937Z,77.15
2018-03-19T20:58:41.458Z,77.51
2018-03-19T21:01:09.003Z,78.35
2018-03-19T21:03:36.548Z,78.98
2018-03-19T21:06:04.715Z,79.32
2018-03-19T21:08:32.282Z,79.24
2018-03-19T21:10:59.769Z,80.02
2018-03-19T21:13:27.274Z,80.77
2018-03-19T21:15:54.850Z,81.07
2018-03-19T21:18:22.391Z,80.98
2018-03-19T21:20:49.878Z,80.98
2018-03-19T21:23:17.409Z,80.83
2018-03-19T21:25:44.952Z,80.84
2018-03-19T21:28:12.597Z,81.14
2018-03-19T21:30:40.244Z,81.12
2018-03-19T21:33:07.877Z,80.85
2018-03-19T21:35:35.424Z,80.81
2018-03-19T21:38:02.979Z,80.89
2018-03-19T21:40:30.603Z,79.46
2018-03-19T21:42:58.139Z,80.02
2018-03-19T21:45:25.630Z,80.23
2018-03-19T21:47:53.142Z,79.21
2018-03-19T21:50:20.687Z,79.21
2018-03-19T21:52:48.156Z,79.09
2018-03-19T21:55:16.065Z,78.36
2018-03-19T21:57:43.648Z,78.41
2018-03-19T22:00:11.121Z,78.92
2018-03-19T22:02:38.600Z,79.41
2018-03-19T22:05:06.997Z,79.19
2018-03-19T22:07:34.482Z,78.98
2018-03-19T22:10:01.995Z,78.72
2018-03-19T22:12:31.067Z,79.37
2018-03-19T22:15:02.279Z,78.92
2018-03-19T22:17:29.786Z,78.57
2018-03-19T22:19:57.259Z,78.83
2018-03-19T22:22:24.743Z,78.74
2018-03-19T22:24:52.231Z,78.26
2018-03-19T22:27:19.765Z,78.12
2018-03-19T22:29:47.236Z,77.46
2018-03-19T22:32:14.735Z,77.78
2018-03-19T22:34:42.388Z,77.65
2018-03-19T22:37:09.860Z,77.20
2018-03-19T22:39:37.388Z,77.11
2018-03-19T22:42:04.865Z,76.51
2018-03-19T22:44:33.052Z,76.38
2018-03-19T22:47:02.628Z,76.44
2018-03-19T22:49:30.147Z,75.91
2018-03-19T22:51:57.631Z,75.77
2018-03-19T22:54:25.447Z,74.88
2018-03-19T22:56:53.095Z,74.88
2018-03-19T22:59:20.563Z,75.04
2018-03-19T23:01:48.104Z,74.81
2018-03-19T23:04:27.399Z,74.99
2018-03-19T23:06:54.960Z,74.16
2018-03-19T23:09:22.443Z,74.19
2018-03-19T23:11:49.984Z,74.29
2018-03-19T23:14:17.489Z,73.91
2018-03-19T23:16:44.989Z,73.99
2018-03-19T23:19:12.486Z,73.73
2018-03-19T23:21:39.992Z,73.72
2018-03-19T23:24:07.956Z,73.99
2018-03-19T23:26:35.432Z,72.87
2018-03-19T23:29:02.936Z,73.00
2018-03-19T23:31:30.413Z,73.11
2018-03-19T23:33:57.905Z,73.54
2018-03-19T23:36:25.498Z,73.69
2018-03-19T23:38:52.975Z,73.11
2018-03-19T23:41:20.449Z,72.57
2018-03-19T23:43:48.210Z,72.13
2018-03-19T23:46:16.863Z,72.03
2018-03-19T23:48:44.892Z,72.00
2018-03-19T23:51:13.698Z,72.10
2018-03-19T23:53:41.263Z,71.63
2018-03-19T23:56:08.753Z,71.35
2018-03-19T23:58:36.313Z,71.42
